Airfield :
LOGIN :

Register | Disclaimer

   EN    FR    IT 

 










Legend :    VFR   Marginal VFR   IFR   Intensive IFR   Very Intensive IFR
Visi :
Ceiling :
>= 8 km
>= 3000ft
5 to 8 km
1000 to 3000 ft
1500m to 5 km
500 to 1000 ft
800 to 1500m
200 to 500 ft
< 800m
< 200 ft
Symbols :   Thunderstorms  Fog  Heavy snow  Heavy precipitations  Wind > 20 kt
SIGMETs :     Misc.  Thunderstorms  Icing  Turbulence  Mountain Waves  Volcanic Ashes







- Airport Elevation : 1306 ft
- IATA code : ACH


LSZR - Alten Rhein

CURRENT METAR :
  • 210820Z 30004KT 9999 FEW060 BKN090 14/13 Q1019 NOSIG RMK D

EXPIRED METARs :
  • 210750Z 24003KT 9999 FEW060 BKN090 14/13 Q1019 NOSIG RMK C
  • 210720Z 24003KT 9999 FEW060 BKN090 14/13 Q1019 NOSIG RMK C
  • 210650Z VRB02KT 9999 FEW060 BKN090 13/12 Q1018 NOSIG RMK B
  • 210620Z VRB02KT 9999 FEW060 BKN090 13/12 Q1018 NOSIG RMK B
  • 210550Z VRB02KT 9999 -RA BKN050 13/12 Q1018 NOSIG RMK A
  • 210520Z VRB02KT 9999 BKN050 13/12 Q1018 NOSIG RMK A

TAF TAF LSZR
Valid from the 21 at 06:00 until the 21 at 15:00 UTC


210525Z 2106/2115 VRB03KT 9999 BKN050
TEMPO 2109/2113 CAVOK
ATIS : +41 71 858 51 66
No reported NOTAMs for that airfield.



MET'MAP, your aeronautical weather chart ! - Copyright ORBIFLY December 2007 - Disclaimer

ORBIFLY MET'MAP TEAM :

Programming & Development : Alexandra Zaïnal
Concept & Development : Baudouin d'Aumeries
Co-Development & Prog : Marc-Olivier Méhu
Technical & hardware support : Manuel Goepfert

Contact : metmap@orbifly.com




SOURCES & CREDITS :

   NOAA